Alleyton, Texas
Current Conditions -  °F | °C
As of 9:55 PM on Saturday 25 Oct 2014 (Local Time) from K66R Reporting Station
Clear Clear  
Wind Chill: 68°   Ceiling: Unl
Heat Index: 68°   Visibility: 10mi
Dew Point: 60°   Wind: 5mph
Humidity: 76%   Direction: 180°S
Pressure: 30.1"   Gusts: NA
Location:  29.71°N, 96.49°W
Report Text: K66R 260255Z AUTO 18004KT 10SM CLR 20/16 A3010 RMK AO2 T02000156
Loading
Personal Weather Stations






























Interactive Weather Map New forecast layout! Learn more

10-Day Weather Forecast

Advertisements
Track Severe Weather on mobile